sensor_id;sensor_type;location;lat;lon;timestamp;temperature;humidity
831;DHT22;397;50.564;7.272;2022-08-04T00:02:02;23.10;99.90
831;DHT22;397;50.564;7.272;2022-08-04T00:04:48;22.90;99.90
831;DHT22;397;50.564;7.272;2022-08-04T00:07:27;22.80;99.90
831;DHT22;397;50.564;7.272;2022-08-04T00:09:59;22.80;99.90
831;DHT22;397;50.564;7.272;2022-08-04T00:12:30;22.60;99.90
831;DHT22;397;50.564;7.272;2022-08-04T00:15:00;22.70;99.90
831;DHT22;397;50.564;7.272;2022-08-04T00:17:42;22.80;99.90
831;DHT22;397;50.564;7.272;2022-08-04T00:20:05;22.80;99.90
831;DHT22;397;50.564;7.272;2022-08-04T00:22:34;22.70;99.90
831;DHT22;397;50.564;7.272;2022-08-04T00:25:04;22.80;99.90
831;DHT22;397;50.564;7.272;2022-08-04T00:27:32;22.80;99.90
831;DHT22;397;50.564;7.272;2022-08-04T00:30:00;22.90;99.90
831;DHT22;397;50.564;7.272;2022-08-04T00:32:28;22.80;99.90
831;DHT22;397;50.564;7.272;2022-08-04T00:34:57;22.70;99.90
831;DHT22;397;50.564;7.272;2022-08-04T00:37:26;22.60;99.90
831;DHT22;397;50.564;7.272;2022-08-04T00:39:54;22.70;99.90
831;DHT22;397;50.564;7.272;2022-08-04T00:42:38;22.50;99.90
831;DHT22;397;50.564;7.272;2022-08-04T00:45:31;22.60;99.90
831;DHT22;397;50.564;7.272;2022-08-04T00:51:00;22.60;99.90
831;DHT22;397;50.564;7.272;2022-08-04T00:53:43;22.60;99.90
831;DHT22;397;50.564;7.272;2022-08-04T00:56:28;22.60;99.90
831;DHT22;397;50.564;7.272;2022-08-04T01:01:59;22.20;99.90
831;DHT22;397;50.564;7.272;2022-08-04T01:07:14;22.00;99.90
831;DHT22;397;50.564;7.272;2022-08-04T01:12:32;22.10;99.90
831;DHT22;397;50.564;7.272;2022-08-04T01:20:06;22.00;99.90
831;DHT22;397;50.564;7.272;2022-08-04T01:28:27;22.00;99.90
831;DHT22;397;50.564;7.272;2022-08-04T01:31:06;22.00;99.90
831;DHT22;397;50.564;7.272;2022-08-04T01:33:34;22.10;99.90
831;DHT22;397;50.564;7.272;2022-08-04T01:36:04;22.00;99.90
831;DHT22;397;50.564;7.272;2022-08-04T01:38:37;21.90;99.90
831;DHT22;397;50.564;7.272;2022-08-04T01:41:06;21.90;99.90
831;DHT22;397;50.564;7.272;2022-08-04T01:43:40;21.60;99.90
831;DHT22;397;50.564;7.272;2022-08-04T01:46:10;21.80;99.90
831;DHT22;397;50.564;7.272;2022-08-04T01:48:39;21.70;99.90
831;DHT22;397;50.564;7.272;2022-08-04T01:51:08;21.70;99.90
831;DHT22;397;50.564;7.272;2022-08-04T01:53:40;21.80;99.90
831;DHT22;397;50.564;7.272;2022-08-04T01:56:10;21.70;99.90
831;DHT22;397;50.564;7.272;2022-08-04T01:58:39;21.70;99.90
831;DHT22;397;50.564;7.272;2022-08-04T02:01:10;21.70;99.90
831;DHT22;397;50.564;7.272;2022-08-04T02:03:39;21.80;99.90
831;DHT22;397;50.564;7.272;2022-08-04T02:06:24;21.60;99.90
831;DHT22;397;50.564;7.272;2022-08-04T02:08:57;21.60;99.90
831;DHT22;397;50.564;7.272;2022-08-04T02:11:22;21.50;99.90
831;DHT22;397;50.564;7.272;2022-08-04T02:14:16;21.50;99.90
831;DHT22;397;50.564;7.272;2022-08-04T02:16:49;21.40;99.90
831;DHT22;397;50.564;7.272;2022-08-04T02:20:14;21.50;99.90
831;DHT22;397;50.564;7.272;2022-08-04T02:22:15;21.40;99.90
831;DHT22;397;50.564;7.272;2022-08-04T02:24:45;21.40;99.90
831;DHT22;397;50.564;7.272;2022-08-04T02:27:14;21.40;99.90
831;DHT22;397;50.564;7.272;2022-08-04T02:29:49;21.30;99.90
831;DHT22;397;50.564;7.272;2022-08-04T02:32:25;21.20;99.90
831;DHT22;397;50.564;7.272;2022-08-04T02:35:19;21.40;99.90
831;DHT22;397;50.564;7.272;2022-08-04T02:37:47;21.20;99.90
831;DHT22;397;50.564;7.272;2022-08-04T02:40:18;21.10;99.90
831;DHT22;397;50.564;7.272;2022-08-04T02:42:45;21.30;99.90
831;DHT22;397;50.564;7.272;2022-08-04T02:45:14;21.30;99.90
831;DHT22;397;50.564;7.272;2022-08-04T02:47:44;21.10;99.90
831;DHT22;397;50.564;7.272;2022-08-04T02:50:13;21.10;99.90
831;DHT22;397;50.564;7.272;2022-08-04T02:52:43;21.10;99.90
831;DHT22;397;50.564;7.272;2022-08-04T02:55:13;21.10;99.90
831;DHT22;397;50.564;7.272;2022-08-04T02:57:43;21.10;99.90
831;DHT22;397;50.564;7.272;2022-08-04T03:00:13;20.90;99.90
831;DHT22;397;50.564;7.272;2022-08-04T03:03:01;20.90;99.90
831;DHT22;397;50.564;7.272;2022-08-04T03:05:33;20.90;99.90
831;DHT22;397;50.564;7.272;2022-08-04T03:19:22;20.90;99.90
831;DHT22;397;50.564;7.272;2022-08-04T03:21:59;21.00;99.90
831;DHT22;397;50.564;7.272;2022-08-04T03:27:57;20.80;99.90
831;DHT22;397;50.564;7.272;2022-08-04T03:30:34;20.90;99.90
831;DHT22;397;50.564;7.272;2022-08-04T03:44:26;20.80;99.90
831;DHT22;397;50.564;7.272;2022-08-04T03:50:10;20.80;99.90
831;DHT22;397;50.564;7.272;2022-08-04T03:53:08;20.80;99.90
831;DHT22;397;50.564;7.272;2022-08-04T04:03:59;20.70;99.90
831;DHT22;397;50.564;7.272;2022-08-04T04:09:27;20.50;99.90
831;DHT22;397;50.564;7.272;2022-08-04T04:20:36;20.40;99.90
831;DHT22;397;50.564;7.272;2022-08-04T04:23:26;20.40;99.90
831;DHT22;397;50.564;7.272;2022-08-04T04:26:06;20.70;99.90
831;DHT22;397;50.564;7.272;2022-08-04T04:28:48;20.70;99.90
831;DHT22;397;50.564;7.272;2022-08-04T04:34:05;20.90;99.90
831;DHT22;397;50.564;7.272;2022-08-04T04:39:42;20.90;99.90
831;DHT22;397;50.564;7.272;2022-08-04T04:47:57;21.60;99.90
831;DHT22;397;50.564;7.272;2022-08-04T04:53:10;22.40;99.90
831;DHT22;397;50.564;7.272;2022-08-04T04:55:41;22.80;99.90
831;DHT22;397;50.564;7.272;2022-08-04T04:58:10;23.60;99.90
831;DHT22;397;50.564;7.272;2022-08-04T05:01:04;23.70;99.90
831;DHT22;397;50.564;7.272;2022-08-04T05:08:42;23.50;99.90
831;DHT22;397;50.564;7.272;2022-08-04T05:14:04;25.40;99.90
831;DHT22;397;50.564;7.272;2022-08-04T05:19:17;25.70;99.90
831;DHT22;397;50.564;7.272;2022-08-04T05:22:02;25.60;99.90
831;DHT22;397;50.564;7.272;2022-08-04T05:24:31;25.60;99.90
831;DHT22;397;50.564;7.272;2022-08-04T05:27:02;25.70;99.90
831;DHT22;397;50.564;7.272;2022-08-04T05:29:36;26.90;99.90
831;DHT22;397;50.564;7.272;2022-08-04T05:32:06;26.60;99.90
831;DHT22;397;50.564;7.272;2022-08-04T05:34:48;26.30;99.90
831;DHT22;397;50.564;7.272;2022-08-04T05:37:15;26.70;99.90
831;DHT22;397;50.564;7.272;2022-08-04T05:39:46;26.70;99.90
831;DHT22;397;50.564;7.272;2022-08-04T05:42:14;26.50;99.90
831;DHT22;397;50.564;7.272;2022-08-04T05:44:42;27.00;99.90
831;DHT22;397;50.564;7.272;2022-08-04T05:47:11;26.50;99.90
831;DHT22;397;50.564;7.272;2022-08-04T05:49:39;26.30;99.90
831;DHT22;397;50.564;7.272;2022-08-04T05:52:09;26.80;99.90
831;DHT22;397;50.564;7.272;2022-08-04T05:54:38;26.30;99.90
831;DHT22;397;50.564;7.272;2022-08-04T05:57:06;25.70;99.90
831;DHT22;397;50.564;7.272;2022-08-04T05:59:37;26.20;99.90
831;DHT22;397;50.564;7.272;2022-08-04T06:02:07;26.70;99.90
831;DHT22;397;50.564;7.272;2022-08-04T06:04:41;27.60;99.90
831;DHT22;397;50.564;7.272;2022-08-04T06:07:28;27.90;99.90
831;DHT22;397;50.564;7.272;2022-08-04T06:09:55;27.70;99.90
831;DHT22;397;50.564;7.272;2022-08-04T06:12:40;27.70;99.90
831;DHT22;397;50.564;7.272;2022-08-04T06:15:07;28.30;99.90
831;DHT22;397;50.564;7.272;2022-08-04T06:17:39;28.20;99.90
831;DHT22;397;50.564;7.272;2022-08-04T06:20:07;27.70;99.90
831;DHT22;397;50.564;7.272;2022-08-04T06:22:39;27.40;99.90
831;DHT22;397;50.564;7.272;2022-08-04T06:25:08;27.90;99.90
831;DHT22;397;50.564;7.272;2022-08-04T06:27:38;28.20;99.90
831;DHT22;397;50.564;7.272;2022-08-04T06:30:06;28.70;99.90
831;DHT22;397;50.564;7.272;2022-08-04T06:32:37;29.00;99.90
831;DHT22;397;50.564;7.272;2022-08-04T06:35:07;28.30;99.90
831;DHT22;397;50.564;7.272;2022-08-04T06:37:36;29.00;99.90
831;DHT22;397;50.564;7.272;2022-08-04T06:40:06;28.70;99.90
831;DHT22;397;50.564;7.272;2022-08-04T06:42:35;28.40;99.90
831;DHT22;397;50.564;7.272;2022-08-04T06:45:05;27.80;99.90
831;DHT22;397;50.564;7.272;2022-08-04T06:47:35;28.70;99.90
831;DHT22;397;50.564;7.272;2022-08-04T06:50:04;29.00;99.90
831;DHT22;397;50.564;7.272;2022-08-04T06:52:32;28.70;99.90
831;DHT22;397;50.564;7.272;2022-08-04T06:55:00;28.70;99.90
831;DHT22;397;50.564;7.272;2022-08-04T06:57:29;27.70;99.90
831;DHT22;397;50.564;7.272;2022-08-04T07:00:09;27.60;99.90
831;DHT22;397;50.564;7.272;2022-08-04T07:02:45;27.80;99.90
831;DHT22;397;50.564;7.272;2022-08-04T07:05:14;28.30;99.90
831;DHT22;397;50.564;7.272;2022-08-04T07:07:43;28.70;99.90
831;DHT22;397;50.564;7.272;2022-08-04T07:10:11;28.40;99.90
831;DHT22;397;50.564;7.272;2022-08-04T07:12:40;27.90;99.90
831;DHT22;397;50.564;7.272;2022-08-04T07:15:09;28.30;99.90
831;DHT22;397;50.564;7.272;2022-08-04T07:17:37;28.20;99.90
831;DHT22;397;50.564;7.272;2022-08-04T07:20:06;28.40;99.90
831;DHT22;397;50.564;7.272;2022-08-04T07:22:34;28.80;99.90
831;DHT22;397;50.564;7.272;2022-08-04T07:25:07;29.00;99.90
831;DHT22;397;50.564;7.272;2022-08-04T07:27:31;28.50;99.90
831;DHT22;397;50.564;7.272;2022-08-04T07:29:58;28.40;99.90
831;DHT22;397;50.564;7.272;2022-08-04T07:32:27;28.30;99.90
831;DHT22;397;50.564;7.272;2022-08-04T07:34:55;28.50;99.90
831;DHT22;397;50.564;7.272;2022-08-04T07:37:23;28.50;99.90
831;DHT22;397;50.564;7.272;2022-08-04T07:39:50;28.50;99.90
831;DHT22;397;50.564;7.272;2022-08-04T07:42:18;28.70;99.90
831;DHT22;397;50.564;7.272;2022-08-04T07:44:47;28.70;99.90
831;DHT22;397;50.564;7.272;2022-08-04T07:47:14;28.80;99.90
831;DHT22;397;50.564;7.272;2022-08-04T07:49:42;29.10;99.90
831;DHT22;397;50.564;7.272;2022-08-04T07:52:10;29.20;99.90
831;DHT22;397;50.564;7.272;2022-08-04T07:54:38;29.50;99.90
831;DHT22;397;50.564;7.272;2022-08-04T07:57:06;29.50;99.90
831;DHT22;397;50.564;7.272;2022-08-04T07:59:34;29.90;99.90
831;DHT22;397;50.564;7.272;2022-08-04T08:02:02;30.20;99.90
831;DHT22;397;50.564;7.272;2022-08-04T08:04:30;29.90;99.90
831;DHT22;397;50.564;7.272;2022-08-04T08:06:58;29.70;99.90
831;DHT22;397;50.564;7.272;2022-08-04T08:09:26;29.80;99.90
831;DHT22;397;50.564;7.272;2022-08-04T08:11:54;29.80;99.90
831;DHT22;397;50.564;7.272;2022-08-04T08:14:24;29.80;99.90
831;DHT22;397;50.564;7.272;2022-08-04T08:16:53;30.10;99.90
831;DHT22;397;50.564;7.272;2022-08-04T08:19:20;30.30;99.90
831;DHT22;397;50.564;7.272;2022-08-04T08:21:48;30.50;99.90
831;DHT22;397;50.564;7.272;2022-08-04T08:24:16;30.60;99.90
831;DHT22;397;50.564;7.272;2022-08-04T08:26:44;30.70;99.90
831;DHT22;397;50.564;7.272;2022-08-04T08:29:12;30.30;99.90
831;DHT22;397;50.564;7.272;2022-08-04T08:31:41;30.20;99.90
831;DHT22;397;50.564;7.272;2022-08-04T08:34:11;30.20;99.90
831;DHT22;397;50.564;7.272;2022-08-04T08:36:47;30.60;99.90
831;DHT22;397;50.564;7.272;2022-08-04T08:39:21;30.90;99.90
831;DHT22;397;50.564;7.272;2022-08-04T09:01:30;31.10;99.20
831;DHT22;397;50.564;7.272;2022-08-04T09:12:21;31.50;97.00
831;DHT22;397;50.564;7.272;2022-08-04T09:14:53;31.50;96.70
831;DHT22;397;50.564;7.272;2022-08-04T09:17:29;31.70;97.40
831;DHT22;397;50.564;7.272;2022-08-04T09:20:05;31.80;96.00
831;DHT22;397;50.564;7.272;2022-08-04T09:22:43;31.80;95.40
831;DHT22;397;50.564;7.272;2022-08-04T09:27:52;32.10;95.00
831;DHT22;397;50.564;7.272;2022-08-04T09:30:26;32.30;94.70
831;DHT22;397;50.564;7.272;2022-08-04T09:33:15;32.30;94.10
831;DHT22;397;50.564;7.272;2022-08-04T09:38:45;32.60;93.70
831;DHT22;397;50.564;7.272;2022-08-04T09:41:40;32.70;93.30
831;DHT22;397;50.564;7.272;2022-08-04T09:47:04;33.00;91.90
831;DHT22;397;50.564;7.272;2022-08-04T09:49:46;32.90;91.00
831;DHT22;397;50.564;7.272;2022-08-04T09:55:03;33.20;87.30
831;DHT22;397;50.564;7.272;2022-08-04T10:00:24;33.20;86.60
831;DHT22;397;50.564;7.272;2022-08-04T10:02:54;33.30;85.30
831;DHT22;397;50.564;7.272;2022-08-04T10:05:32;33.40;83.50
831;DHT22;397;50.564;7.272;2022-08-04T10:08:08;33.50;83.60
831;DHT22;397;50.564;7.272;2022-08-04T10:13:22;33.70;80.00
831;DHT22;397;50.564;7.272;2022-08-04T10:18:30;34.20;77.90
831;DHT22;397;50.564;7.272;2022-08-04T10:21:02;34.10;77.00
831;DHT22;397;50.564;7.272;2022-08-04T10:26:32;34.40;74.90
831;DHT22;397;50.564;7.272;2022-08-04T10:29:04;34.50;73.30
831;DHT22;397;50.564;7.272;2022-08-04T10:31:34;34.60;72.10
831;DHT22;397;50.564;7.272;2022-08-04T10:36:40;34.60;69.70
831;DHT22;397;50.564;7.272;2022-08-04T10:39:06;34.70;66.80
831;DHT22;397;50.564;7.272;2022-08-04T10:41:53;34.60;65.40
831;DHT22;397;50.564;7.272;2022-08-04T10:44:46;34.40;64.40
831;DHT22;397;50.564;7.272;2022-08-04T10:47:18;34.30;66.10
831;DHT22;397;50.564;7.272;2022-08-04T10:49:54;34.80;66.70
831;DHT22;397;50.564;7.272;2022-08-04T10:52:43;35.10;63.50
831;DHT22;397;50.564;7.272;2022-08-04T10:55:19;35.00;64.80
831;DHT22;397;50.564;7.272;2022-08-04T10:57:50;35.10;65.00
831;DHT22;397;50.564;7.272;2022-08-04T11:00:26;35.20;60.60
831;DHT22;397;50.564;7.272;2022-08-04T11:05:49;35.60;57.50
831;DHT22;397;50.564;7.272;2022-08-04T11:08:33;35.40;56.90
831;DHT22;397;50.564;7.272;2022-08-04T11:14:09;35.40;56.70
831;DHT22;397;50.564;7.272;2022-08-04T11:16:52;35.70;56.00
831;DHT22;397;50.564;7.272;2022-08-04T11:19:27;35.60;56.50
831;DHT22;397;50.564;7.272;2022-08-04T11:22:07;35.60;56.80
831;DHT22;397;50.564;7.272;2022-08-04T11:24:42;35.50;56.00
831;DHT22;397;50.564;7.272;2022-08-04T11:27:19;35.90;53.20
831;DHT22;397;50.564;7.272;2022-08-04T11:30:05;35.90;52.60
831;DHT22;397;50.564;7.272;2022-08-04T11:33:00;36.00;51.30
831;DHT22;397;50.564;7.272;2022-08-04T11:35:33;36.10;50.50
831;DHT22;397;50.564;7.272;2022-08-04T11:38:29;36.40;49.70
831;DHT22;397;50.564;7.272;2022-08-04T11:41:03;36.90;48.60
831;DHT22;397;50.564;7.272;2022-08-04T11:46:35;37.20;49.20
831;DHT22;397;50.564;7.272;2022-08-04T11:49:28;37.00;48.00
831;DHT22;397;50.564;7.272;2022-08-04T11:51:51;37.00;48.40
831;DHT22;397;50.564;7.272;2022-08-04T11:54:20;36.70;48.50
831;DHT22;397;50.564;7.272;2022-08-04T11:56:48;36.50;48.30
831;DHT22;397;50.564;7.272;2022-08-04T11:59:16;36.30;48.70
831;DHT22;397;50.564;7.272;2022-08-04T12:02:18;36.40;48.80
831;DHT22;397;50.564;7.272;2022-08-04T12:05:02;36.20;48.90
831;DHT22;397;50.564;7.272;2022-08-04T12:10:35;36.20;48.30
831;DHT22;397;50.564;7.272;2022-08-04T12:15:58;36.00;48.20
831;DHT22;397;50.564;7.272;2022-08-04T12:18:40;35.90;48.40
831;DHT22;397;50.564;7.272;2022-08-04T12:21:17;35.70;48.70
831;DHT22;397;50.564;7.272;2022-08-04T12:23:42;35.70;48.00
831;DHT22;397;50.564;7.272;2022-08-04T12:26:22;35.40;47.90
831;DHT22;397;50.564;7.272;2022-08-04T12:28:50;35.30;47.30
831;DHT22;397;50.564;7.272;2022-08-04T12:31:46;35.30;47.90
831;DHT22;397;50.564;7.272;2022-08-04T12:34:33;35.10;47.80
831;DHT22;397;50.564;7.272;2022-08-04T12:39:51;34.90;48.50
831;DHT22;397;50.564;7.272;2022-08-04T12:42:29;34.80;48.20
831;DHT22;397;50.564;7.272;2022-08-04T12:44:57;34.60;48.50
831;DHT22;397;50.564;7.272;2022-08-04T12:47:27;34.60;48.40
831;DHT22;397;50.564;7.272;2022-08-04T12:49:58;34.70;48.70
831;DHT22;397;50.564;7.272;2022-08-04T12:52:26;34.80;49.00
831;DHT22;397;50.564;7.272;2022-08-04T12:54:54;34.90;50.00
831;DHT22;397;50.564;7.272;2022-08-04T12:57:24;34.90;49.50
831;DHT22;397;50.564;7.272;2022-08-04T12:59:51;34.90;50.60
831;DHT22;397;50.564;7.272;2022-08-04T13:02:36;35.00;49.40
831;DHT22;397;50.564;7.272;2022-08-04T13:05:04;35.00;50.50
831;DHT22;397;50.564;7.272;2022-08-04T13:07:41;35.00;52.20
831;DHT22;397;50.564;7.272;2022-08-04T13:10:15;34.60;54.40
831;DHT22;397;50.564;7.272;2022-08-04T13:12:52;34.80;55.20
831;DHT22;397;50.564;7.272;2022-08-04T13:15:24;34.80;56.10
831;DHT22;397;50.564;7.272;2022-08-04T13:18:09;34.70;56.50
831;DHT22;397;50.564;7.272;2022-08-04T13:20:39;34.80;57.60
831;DHT22;397;50.564;7.272;2022-08-04T13:23:10;34.80;58.10
831;DHT22;397;50.564;7.272;2022-08-04T13:25:43;34.60;58.20
831;DHT22;397;50.564;7.272;2022-08-04T13:28:23;34.30;58.50
831;DHT22;397;50.564;7.272;2022-08-04T13:30:57;34.60;58.70
831;DHT22;397;50.564;7.272;2022-08-04T13:33:36;34.40;57.70
831;DHT22;397;50.564;7.272;2022-08-04T13:36:06;34.20;57.90
831;DHT22;397;50.564;7.272;2022-08-04T13:38:37;34.10;58.00
831;DHT22;397;50.564;7.272;2022-08-04T13:41:06;34.00;58.00
831;DHT22;397;50.564;7.272;2022-08-04T13:43:47;34.00;59.00
831;DHT22;397;50.564;7.272;2022-08-04T13:46:29;34.20;59.80
831;DHT22;397;50.564;7.272;2022-08-04T13:48:59;34.40;60.20
831;DHT22;397;50.564;7.272;2022-08-04T13:51:27;34.60;60.70
831;DHT22;397;50.564;7.272;2022-08-04T13:53:58;34.80;61.50
831;DHT22;397;50.564;7.272;2022-08-04T13:56:43;34.70;62.10
831;DHT22;397;50.564;7.272;2022-08-04T13:59:13;34.70;63.00
831;DHT22;397;50.564;7.272;2022-08-04T14:01:44;34.60;63.80
831;DHT22;397;50.564;7.272;2022-08-04T14:04:17;34.60;63.40
831;DHT22;397;50.564;7.272;2022-08-04T14:07:33;34.40;63.40
831;DHT22;397;50.564;7.272;2022-08-04T14:09:35;34.40;62.90
831;DHT22;397;50.564;7.272;2022-08-04T14:12:07;34.10;63.60
831;DHT22;397;50.564;7.272;2022-08-04T14:14:36;33.80;63.60
831;DHT22;397;50.564;7.272;2022-08-04T14:17:10;33.90;64.20
831;DHT22;397;50.564;7.272;2022-08-04T14:19:50;33.80;64.00
831;DHT22;397;50.564;7.272;2022-08-04T14:25:10;33.90;63.70
831;DHT22;397;50.564;7.272;2022-08-04T14:27:53;33.90;63.70
831;DHT22;397;50.564;7.272;2022-08-04T14:30:37;33.50;64.30
831;DHT22;397;50.564;7.272;2022-08-04T14:33:06;33.40;65.50
831;DHT22;397;50.564;7.272;2022-08-04T14:35:35;33.50;64.70
831;DHT22;397;50.564;7.272;2022-08-04T14:38:06;33.30;66.30
831;DHT22;397;50.564;7.272;2022-08-04T14:40:39;33.30;65.00
831;DHT22;397;50.564;7.272;2022-08-04T14:43:10;33.30;64.40
831;DHT22;397;50.564;7.272;2022-08-04T14:45:40;33.30;66.40
831;DHT22;397;50.564;7.272;2022-08-04T14:48:13;33.30;66.60
831;DHT22;397;50.564;7.272;2022-08-04T14:50:46;33.40;66.70
831;DHT22;397;50.564;7.272;2022-08-04T14:53:22;33.60;65.20
831;DHT22;397;50.564;7.272;2022-08-04T14:55:53;33.70;65.00
831;DHT22;397;50.564;7.272;2022-08-04T14:58:28;33.80;64.70
831;DHT22;397;50.564;7.272;2022-08-04T15:00:58;33.90;64.30
831;DHT22;397;50.564;7.272;2022-08-04T15:03:28;34.00;64.20
831;DHT22;397;50.564;7.272;2022-08-04T15:05:58;33.80;66.50
831;DHT22;397;50.564;7.272;2022-08-04T15:08:26;33.30;65.70
831;DHT22;397;50.564;7.272;2022-08-04T15:10:54;33.40;66.10
831;DHT22;397;50.564;7.272;2022-08-04T15:13:26;33.60;66.70
831;DHT22;397;50.564;7.272;2022-08-04T15:15:54;33.60;68.80
831;DHT22;397;50.564;7.272;2022-08-04T15:18:22;33.50;66.80
831;DHT22;397;50.564;7.272;2022-08-04T15:20:51;33.60;65.60
831;DHT22;397;50.564;7.272;2022-08-04T15:23:19;33.60;66.20
831;DHT22;397;50.564;7.272;2022-08-04T15:25:50;33.40;66.90
831;DHT22;397;50.564;7.272;2022-08-04T15:28:19;33.50;66.00
831;DHT22;397;50.564;7.272;2022-08-04T15:30:51;33.50;65.80
831;DHT22;397;50.564;7.272;2022-08-04T15:33:22;33.60;65.90
831;DHT22;397;50.564;7.272;2022-08-04T15:35:54;33.70;65.90
831;DHT22;397;50.564;7.272;2022-08-04T15:38:31;33.60;65.70
831;DHT22;397;50.564;7.272;2022-08-04T15:49:33;33.10;67.10
831;DHT22;397;50.564;7.272;2022-08-04T15:52:03;33.10;66.90
831;DHT22;397;50.564;7.272;2022-08-04T15:54:30;33.10;66.10
831;DHT22;397;50.564;7.272;2022-08-04T15:56:58;33.10;65.60
831;DHT22;397;50.564;7.272;2022-08-04T15:59:57;33.00;66.00
831;DHT22;397;50.564;7.272;2022-08-04T16:08:08;32.90;68.20
831;DHT22;397;50.564;7.272;2022-08-04T16:10:37;32.80;67.60
831;DHT22;397;50.564;7.272;2022-08-04T16:13:08;32.80;67.10
831;DHT22;397;50.564;7.272;2022-08-04T16:15:46;32.70;67.40
831;DHT22;397;50.564;7.272;2022-08-04T16:21:01;32.70;67.70
831;DHT22;397;50.564;7.272;2022-08-04T16:26:03;32.50;68.20
831;DHT22;397;50.564;7.272;2022-08-04T16:28:38;32.60;68.90
831;DHT22;397;50.564;7.272;2022-08-04T16:31:09;32.60;69.90
831;DHT22;397;50.564;7.272;2022-08-04T16:33:38;32.50;70.80
831;DHT22;397;50.564;7.272;2022-08-04T16:36:07;32.40;71.40
831;DHT22;397;50.564;7.272;2022-08-04T16:38:59;32.40;72.20
831;DHT22;397;50.564;7.272;2022-08-04T16:41:41;32.30;72.60
831;DHT22;397;50.564;7.272;2022-08-04T16:44:31;32.10;73.40
831;DHT22;397;50.564;7.272;2022-08-04T16:47:02;32.10;73.90
831;DHT22;397;50.564;7.272;2022-08-04T16:49:31;31.90;74.90
831;DHT22;397;50.564;7.272;2022-08-04T16:52:06;31.70;76.20
831;DHT22;397;50.564;7.272;2022-08-04T16:54:35;31.60;77.50
831;DHT22;397;50.564;7.272;2022-08-04T16:57:09;31.30;79.80
831;DHT22;397;50.564;7.272;2022-08-04T16:59:37;31.10;82.30
831;DHT22;397;50.564;7.272;2022-08-04T17:02:06;31.00;83.50
831;DHT22;397;50.564;7.272;2022-08-04T17:04:35;31.00;83.90
831;DHT22;397;50.564;7.272;2022-08-04T17:07:04;30.90;84.90
831;DHT22;397;50.564;7.272;2022-08-04T17:09:32;30.70;86.10
831;DHT22;397;50.564;7.272;2022-08-04T17:12:00;30.60;87.70
831;DHT22;397;50.564;7.272;2022-08-04T17:14:29;30.40;90.00
831;DHT22;397;50.564;7.272;2022-08-04T17:17:00;30.50;90.60
831;DHT22;397;50.564;7.272;2022-08-04T17:19:27;30.10;92.70
831;DHT22;397;50.564;7.272;2022-08-04T17:22:03;29.70;94.10
831;DHT22;397;50.564;7.272;2022-08-04T17:24:35;29.60;94.50
831;DHT22;397;50.564;7.272;2022-08-04T17:27:04;29.30;95.90
831;DHT22;397;50.564;7.272;2022-08-04T17:29:33;29.60;96.50
831;DHT22;397;50.564;7.272;2022-08-04T17:32:02;29.80;96.10
831;DHT22;397;50.564;7.272;2022-08-04T17:34:30;29.90;96.20
831;DHT22;397;50.564;7.272;2022-08-04T17:37:01;29.70;96.30
831;DHT22;397;50.564;7.272;2022-08-04T17:39:29;29.60;97.20
831;DHT22;397;50.564;7.272;2022-08-04T17:41:58;29.40;98.00
831;DHT22;397;50.564;7.272;2022-08-04T17:44:36;29.30;98.90
831;DHT22;397;50.564;7.272;2022-08-04T17:47:17;29.40;99.30
831;DHT22;397;50.564;7.272;2022-08-04T17:49:44;29.30;99.00
831;DHT22;397;50.564;7.272;2022-08-04T17:52:21;29.20;99.40
831;DHT22;397;50.564;7.272;2022-08-04T17:54:57;29.30;99.50
831;DHT22;397;50.564;7.272;2022-08-04T17:57:20;29.30;99.80
831;DHT22;397;50.564;7.272;2022-08-04T17:59:52;29.30;99.60
831;DHT22;397;50.564;7.272;2022-08-04T18:02:25;29.30;99.50
831;DHT22;397;50.564;7.272;2022-08-04T18:04:53;29.30;99.20
831;DHT22;397;50.564;7.272;2022-08-04T18:07:23;29.20;99.30
831;DHT22;397;50.564;7.272;2022-08-04T18:09:54;29.00;99.90
831;DHT22;397;50.564;7.272;2022-08-04T18:12:31;28.90;99.90
831;DHT22;397;50.564;7.272;2022-08-04T18:15:01;29.00;99.90
831;DHT22;397;50.564;7.272;2022-08-04T18:17:31;28.90;99.90
831;DHT22;397;50.564;7.272;2022-08-04T18:20:00;28.90;99.90
831;DHT22;397;50.564;7.272;2022-08-04T18:22:28;28.80;99.90
831;DHT22;397;50.564;7.272;2022-08-04T18:24:55;28.70;99.90
831;DHT22;397;50.564;7.272;2022-08-04T18:27:26;28.70;99.90
831;DHT22;397;50.564;7.272;2022-08-04T18:29:53;28.70;99.90
831;DHT22;397;50.564;7.272;2022-08-04T18:32:21;28.70;99.90
831;DHT22;397;50.564;7.272;2022-08-04T18:34:51;28.60;99.90
831;DHT22;397;50.564;7.272;2022-08-04T18:37:19;28.50;99.90
831;DHT22;397;50.564;7.272;2022-08-04T18:39:47;28.30;99.90
831;DHT22;397;50.564;7.272;2022-08-04T18:42:14;28.30;99.90
831;DHT22;397;50.564;7.272;2022-08-04T18:44:42;28.20;99.90
831;DHT22;397;50.564;7.272;2022-08-04T18:47:09;28.20;99.90
831;DHT22;397;50.564;7.272;2022-08-04T18:49:37;28.20;99.90
831;DHT22;397;50.564;7.272;2022-08-04T18:52:05;28.20;99.90
831;DHT22;397;50.564;7.272;2022-08-04T18:54:32;28.10;99.90
831;DHT22;397;50.564;7.272;2022-08-04T18:57:20;28.10;99.90
831;DHT22;397;50.564;7.272;2022-08-04T18:59:48;28.20;99.90
831;DHT22;397;50.564;7.272;2022-08-04T19:02:16;28.10;99.90
831;DHT22;397;50.564;7.272;2022-08-04T19:04:44;28.20;99.90
831;DHT22;397;50.564;7.272;2022-08-04T19:07:12;27.90;99.90
831;DHT22;397;50.564;7.272;2022-08-04T19:09:40;28.00;99.90
831;DHT22;397;50.564;7.272;2022-08-04T19:12:08;27.90;99.90
831;DHT22;397;50.564;7.272;2022-08-04T19:14:36;27.60;99.90
831;DHT22;397;50.564;7.272;2022-08-04T19:17:04;27.70;99.90
831;DHT22;397;50.564;7.272;2022-08-04T19:19:32;27.70;99.90
831;DHT22;397;50.564;7.272;2022-08-04T19:21:59;27.70;99.90
831;DHT22;397;50.564;7.272;2022-08-04T19:24:27;27.70;99.90
831;DHT22;397;50.564;7.272;2022-08-04T19:27:05;27.70;99.90
831;DHT22;397;50.564;7.272;2022-08-04T19:29:33;27.70;99.90
831;DHT22;397;50.564;7.272;2022-08-04T19:32:00;27.70;99.90
831;DHT22;397;50.564;7.272;2022-08-04T19:34:28;27.50;99.90
831;DHT22;397;50.564;7.272;2022-08-04T19:36:55;27.40;99.90
831;DHT22;397;50.564;7.272;2022-08-04T19:39:23;27.50;99.90
831;DHT22;397;50.564;7.272;2022-08-04T19:41:50;27.60;99.90
831;DHT22;397;50.564;7.272;2022-08-04T19:44:18;27.50;99.90
831;DHT22;397;50.564;7.272;2022-08-04T19:46:45;27.40;99.90
831;DHT22;397;50.564;7.272;2022-08-04T19:49:14;27.40;99.90
831;DHT22;397;50.564;7.272;2022-08-04T19:51:42;27.20;99.90
831;DHT22;397;50.564;7.272;2022-08-04T19:54:11;27.20;99.90
831;DHT22;397;50.564;7.272;2022-08-04T19:56:39;26.90;99.90
831;DHT22;397;50.564;7.272;2022-08-04T19:59:07;27.00;99.90
831;DHT22;397;50.564;7.272;2022-08-04T20:01:35;27.10;99.90
831;DHT22;397;50.564;7.272;2022-08-04T20:04:03;27.10;99.90
831;DHT22;397;50.564;7.272;2022-08-04T20:06:30;27.10;99.90
831;DHT22;397;50.564;7.272;2022-08-04T20:08:58;27.10;99.90
831;DHT22;397;50.564;7.272;2022-08-04T20:11:25;27.10;99.90
831;DHT22;397;50.564;7.272;2022-08-04T20:13:53;26.90;99.90
831;DHT22;397;50.564;7.272;2022-08-04T20:16:21;26.80;99.90
831;DHT22;397;50.564;7.272;2022-08-04T20:18:49;26.70;99.90